Time;durP1;ratioP1;P1;durP2;ratioP2;P2;SDS_P1;SDS_P2;PMS_P1;PMS_P2;Temp;Humidity;BMP_temperature;BMP_pressure;BME280_temperature;BME280_humidity;BME280_pressure;Samples;Min_cycle;Max_cycle;Signal;HPM_P1;HPM_P2
2023/10/30 00:02:19;;;;;;;9.85;1.98;;;;;;;12.45;100.00;99745.81;5325582;27;20443;-74
2023/10/30 00:04:51;;;;;;;8.75;2.40;;;;;;;12.47;100.00;99743.88;5332981;27;20166;-74
2023/10/30 00:07:25;;;;;;;7.53;1.90;;;;;;;12.45;100.00;99756.34;5335223;27;20133;-74
2023/10/30 00:09:57;;;;;;;8.38;2.25;;;;;;;12.46;100.00;99750.91;5335598;27;20034;-74
2023/10/30 00:12:29;;;;;;;7.65;2.10;;;;;;;12.47;100.00;99752.56;5331950;27;20121;-74
2023/10/30 00:15:03;;;;;;;10.88;2.50;;;;;;;12.47;100.00;99757.00;5332672;27;20038;-74
2023/10/30 00:17:35;;;;;;;7.90;2.17;;;;;;;12.37;100.00;99763.25;5336060;27;20038;-74
2023/10/30 00:20:07;;;;;;;9.55;2.65;;;;;;;12.38;100.00;99764.88;5336785;27;20106;-74
2023/10/30 00:22:39;;;;;;;10.77;2.63;;;;;;;12.41;100.00;99772.44;5334724;27;20027;-74
2023/10/30 00:25:11;;;;;;;7.13;1.92;;;;;;;12.46;100.00;99771.09;5334381;27;20118;-74
2023/10/30 00:27:43;;;;;;;12.02;2.50;;;;;;;12.42;100.00;99781.13;5335377;27;20030;-74
2023/10/30 00:30:15;;;;;;;8.65;1.65;;;;;;;12.44;100.00;99781.78;5328003;27;20022;-74
2023/10/30 00:32:46;;;;;;;10.32;2.20;;;;;;;12.44;100.00;99788.84;5332988;27;20015;-74
2023/10/30 00:35:18;;;;;;;6.82;1.98;;;;;;;12.45;100.00;99790.50;5313327;28;20040;-74
2023/10/30 00:37:50;;;;;;;12.35;2.72;;;;;;;12.42;100.00;99794.25;5334244;27;20032;-74
2023/10/30 00:40:24;;;;;;;7.40;2.10;;;;;;;12.40;100.00;99791.81;5335919;27;20500;-74
2023/10/30 00:42:56;;;;;;;10.68;2.53;;;;;;;12.41;100.00;99796.06;5333996;27;20034;-73
2023/10/30 00:45:28;;;;;;;9.50;2.07;;;;;;;12.43;100.00;99792.47;5334524;27;20031;-74
2023/10/30 00:48:00;;;;;;;10.88;2.75;;;;;;;12.41;100.00;99792.63;5333390;28;20277;-74
2023/10/30 00:50:32;;;;;;;9.27;2.13;;;;;;;12.45;100.00;99801.81;5333883;27;20031;-74
2023/10/30 00:53:04;;;;;;;7.32;2.50;;;;;;;12.50;100.00;99812.66;5335135;28;20031;-74
2023/10/30 00:55:37;;;;;;;8.57;2.42;;;;;;;12.46;100.00;99810.50;5333801;28;20046;-74
2023/10/30 00:58:09;;;;;;;7.40;1.75;;;;;;;12.47;100.00;99807.72;5332554;28;20042;-74
2023/10/30 01:00:41;;;;;;;7.50;1.80;;;;;;;12.47;100.00;99818.25;5335096;28;20097;-74
2023/10/30 01:03:15;;;;;;;7.90;1.70;;;;;;;12.50;100.00;99824.94;5334582;28;20031;-74
2023/10/30 01:05:47;;;;;;;;;;;;;;;13.11;100.00;99818.19;5334891;28;20042;-74
2023/10/30 01:08:18;;;;;;;6.57;2.00;;;;;;;12.57;100.00;99825.91;5331737;27;19911;-74
2023/10/30 01:10:51;;;;;;;8.18;2.40;;;;;;;12.55;100.00;99822.66;5339224;27;20065;-74
2023/10/30 01:13:24;;;;;;;12.38;2.35;;;;;;;12.58;100.00;99843.34;5338088;27;20360;-74
2023/10/30 01:15:56;;;;;;;10.23;2.58;;;;;;;12.57;100.00;99844.31;5339679;27;20046;-74
2023/10/30 01:18:28;;;;;;;7.05;2.17;;;;;;;12.54;100.00;99836.75;5336776;27;20031;-74
2023/10/30 01:21:00;;;;;;;8.82;2.55;;;;;;;12.58;100.00;99845.97;5340033;27;20036;-74
2023/10/30 01:23:32;;;;;;;11.10;2.40;;;;;;;12.57;100.00;99845.13;5329136;27;20050;-74
2023/10/30 01:26:04;;;;;;;9.93;2.58;;;;;;;12.57;100.00;99839.06;5337765;27;20046;-74
2023/10/30 01:28:36;;;;;;;10.20;2.43;;;;;;;12.63;100.00;99835.78;5339154;27;20034;-74
2023/10/30 01:31:08;;;;;;;9.90;2.97;;;;;;;12.60;100.00;99838.72;5335954;27;20094;-74
2023/10/30 01:33:40;;;;;;;8.75;2.25;;;;;;;12.63;100.00;99836.59;5338581;27;20031;-74
2023/10/30 01:36:12;;;;;;;11.38;2.05;;;;;;;12.68;100.00;99832.63;5334327;27;20102;-74
2023/10/30 01:38:44;;;;;;;8.02;2.30;;;;;;;12.69;100.00;99829.00;5334259;27;20027;-74
2023/10/30 01:41:16;;;;;;;8.73;2.03;;;;;;;12.65;100.00;99828.53;5338010;27;20022;-74
2023/10/30 01:43:48;;;;;;;7.93;2.22;;;;;;;12.67;100.00;99834.44;5337099;27;20103;-74
2023/10/30 01:46:20;;;;;;;9.55;2.30;;;;;;;12.70;100.00;99835.91;5337788;27;20146;-74
2023/10/30 01:48:52;;;;;;;6.82;1.90;;;;;;;12.70;100.00;99836.75;5338342;27;20050;-74
2023/10/30 01:51:24;;;;;;;8.15;1.85;;;;;;;12.71;100.00;99843.63;5330858;27;20124;-73
2023/10/30 01:53:56;;;;;;;9.18;1.80;;;;;;;12.72;100.00;99837.38;5336588;27;20024;-74
2023/10/30 01:56:28;;;;;;;7.93;1.90;;;;;;;12.66;100.00;99841.50;5337542;27;20011;-74
2023/10/30 01:59:00;;;;;;;9.00;1.80;;;;;;;12.62;100.00;99844.66;5336633;27;20034;-74
2023/10/30 02:01:35;;;;;;;9.02;1.80;;;;;;;12.74;100.00;99855.63;5339261;27;20754;-74
2023/10/30 02:04:07;;;;;;;7.32;1.77;;;;;;;12.52;100.00;99854.50;5338562;27;20019;-74
2023/10/30 02:06:38;;;;;;;10.88;2.40;;;;;;;12.53;100.00;99854.34;5338768;27;20460;-74
2023/10/30 02:09:11;;;;;;;9.18;1.98;;;;;;;12.52;100.00;99844.81;5338618;27;20396;-74
2023/10/30 02:11:42;;;;;;;9.45;2.03;;;;;;;12.49;100.00;99846.97;5334324;27;20027;-74
2023/10/30 02:14:14;;;;;;;7.43;2.40;;;;;;;12.53;100.00;99849.06;5337065;27;20141;-74
2023/10/30 02:16:46;;;;;;;10.57;2.67;;;;;;;12.50;100.00;99856.47;5309174;27;20139;-74
2023/10/30 02:19:27;;;;;;;8.88;2.72;;;;;;;12.72;100.00;99844.44;5315991;27;20031;-74
2023/10/30 02:21:59;;;;;;;8.27;2.10;;;;;;;12.53;100.00;99846.44;5337683;27;20038;-74
2023/10/30 02:24:31;;;;;;;8.07;2.33;;;;;;;12.53;100.00;99856.97;5333588;27;20027;-74
2023/10/30 02:27:03;;;;;;;9.88;2.08;;;;;;;12.54;100.00;99842.00;5337269;27;20038;-74
2023/10/30 02:29:35;;;;;;;4.28;1.58;;;;;;;12.53;100.00;99845.63;5336285;27;20026;-74
2023/10/30 02:32:07;;;;;;;10.98;2.33;;;;;;;12.59;100.00;99850.22;5334641;27;20119;-74
2023/10/30 02:34:39;;;;;;;7.93;2.05;;;;;;;12.55;100.00;99849.75;5338713;27;20030;-74
2023/10/30 02:37:10;;;;;;;7.38;1.83;;;;;;;12.59;100.00;99844.97;5335446;27;20458;-74
2023/10/30 02:39:42;;;;;;;9.80;2.80;;;;;;;12.53;100.00;99845.63;5334286;27;20612;-74
2023/10/30 02:42:14;;;;;;;6.70;1.80;;;;;;;12.54;100.00;99840.22;5332619;27;20039;-74
2023/10/30 02:44:46;;;;;;;8.27;2.17;;;;;;;12.60;100.00;99836.09;5315707;27;20027;-75
2023/10/30 02:47:19;;;;;;;6.40;2.13;;;;;;;12.54;100.00;99829.72;5337421;27;20169;-74
2023/10/30 02:49:51;;;;;;;9.07;2.00;;;;;;;12.55;100.00;99830.53;5335294;27;20038;-74
2023/10/30 02:52:23;;;;;;;9.63;2.35;;;;;;;12.53;100.00;99832.50;5337747;27;20047;-74
2023/10/30 02:54:55;;;;;;;7.85;2.05;;;;;;;12.51;100.00;99831.84;5335515;27;20118;-74
2023/10/30 02:57:27;;;;;;;12.77;2.80;;;;;;;12.57;100.00;99836.44;5334930;27;20019;-74
2023/10/30 02:59:59;;;;;;;8.43;2.30;;;;;;;12.53;100.00;99832.50;5336970;27;20041;-74
2023/10/30 03:02:31;;;;;;;10.35;2.15;;;;;;;12.50;100.00;99836.28;5335239;27;20034;-74
2023/10/30 03:05:03;;;;;;;8.43;1.65;;;;;;;12.50;100.00;99836.28;5335522;27;20071;-74
2023/10/30 03:07:35;;;;;;;9.02;2.00;;;;;;;12.51;100.00;99824.78;5337238;27;20039;-74
2023/10/30 03:10:07;;;;;;;9.82;2.72;;;;;;;12.54;100.00;99834.97;5327789;27;20491;-74
2023/10/30 03:12:40;;;;;;;6.15;2.10;;;;;;;12.59;100.00;99829.22;5334541;27;20042;-74
2023/10/30 03:15:12;;;;;;;7.07;1.67;;;;;;;12.60;100.00;99846.59;5338231;27;20023;-74
2023/10/30 03:17:43;;;;;;;10.15;2.33;;;;;;;12.54;100.00;99847.25;5335429;27;20354;-74
2023/10/30 03:20:15;;;;;;;9.10;1.83;;;;;;;12.59;100.00;99851.03;5336572;27;20146;-74
2023/10/30 03:22:47;;;;;;;10.20;2.25;;;;;;;12.58;100.00;99854.66;5333653;27;20025;-74
2023/10/30 03:25:19;;;;;;;6.88;2.03;;;;;;;12.55;100.00;99857.63;5335914;27;20027;-74
2023/10/30 03:27:51;;;;;;;7.18;2.10;;;;;;;12.57;100.00;99855.63;5334835;27;20034;-74
2023/10/30 03:30:23;;;;;;;10.45;1.73;;;;;;;12.56;100.00;99854.00;5332003;27;20096;-74
2023/10/30 03:32:55;;;;;;;6.70;2.08;;;;;;;12.52;100.00;99857.13;5334299;27;20564;-74
2023/10/30 03:35:27;;;;;;;10.38;2.50;;;;;;;12.52;100.00;99846.63;5326651;27;20973;-74
2023/10/30 03:37:58;;;;;;;8.43;1.67;;;;;;;12.53;100.00;99846.44;5304737;28;20420;-74
2023/10/30 03:40:31;;;;;;;9.90;2.10;;;;;;;12.52;100.00;99842.19;5328477;27;20142;-74
2023/10/30 03:43:03;;;;;;;8.55;2.22;;;;;;;12.55;100.00;99843.66;5336366;27;20042;-74
2023/10/30 03:45:34;;;;;;;8.85;2.20;;;;;;;12.50;100.00;99840.72;5335216;27;20031;-74
2023/10/30 03:48:06;;;;;;;7.70;1.83;;;;;;;12.51;100.00;99847.63;5334096;27;20118;-74
2023/10/30 03:50:38;;;;;;;9.75;1.98;;;;;;;12.49;100.00;99853.03;5336013;27;20106;-74
2023/10/30 03:53:10;;;;;;;7.10;2.10;;;;;;;12.48;100.00;99853.22;5336097;27;20051;-74
2023/10/30 03:55:42;;;;;;;7.00;2.25;;;;;;;12.41;100.00;99853.03;5334913;27;20031;-74
2023/10/30 03:58:14;;;;;;;7.55;2.20;;;;;;;12.45;100.00;99853.53;5334403;27;20027;-74
2023/10/30 04:00:47;;;;;;;8.85;2.28;;;;;;;12.44;100.00;99859.78;5335768;27;20469;-74
2023/10/30 04:03:18;;;;;;;8.10;1.90;;;;;;;12.41;100.00;99858.28;5301181;28;20048;-74
2023/10/30 04:05:50;;;;;;;9.18;2.13;;;;;;;12.43;100.00;99847.66;5331522;27;20125;-74
2023/10/30 04:08:22;;;;;;;7.63;1.80;;;;;;;12.43;100.00;99847.66;5332182;27;20046;-74
2023/10/30 04:10:54;;;;;;;8.45;1.92;;;;;;;12.37;100.00;99838.59;5335322;27;20084;-74
2023/10/30 04:13:26;;;;;;;6.88;2.35;;;;;;;12.44;100.00;99846.66;5335138;27;20043;-74
2023/10/30 04:15:58;;;;;;;9.55;2.33;;;;;;;12.43;100.00;99840.56;5333801;27;20118;-74
2023/10/30 04:18:31;;;;;;;8.13;2.13;;;;;;;12.46;100.00;99842.84;5337233;27;20095;-74
2023/10/30 04:21:04;;;;;;;7.97;1.77;;;;;;;12.48;100.00;99840.06;5332210;27;20034;-74
2023/10/30 04:23:38;;;;;;;10.05;2.00;;;;;;;12.40;100.00;99841.72;5336113;27;20039;-75
2023/10/30 04:26:10;;;;;;;6.60;1.80;;;;;;;12.40;100.00;99840.91;5337469;27;20027;-74
2023/10/30 04:28:42;;;;;;;9.65;1.85;;;;;;;12.41;100.00;99856.47;5331977;27;20050;-74
2023/10/30 04:31:13;;;;;;;8.82;2.13;;;;;;;12.39;100.00;99852.41;5327973;27;21366;-74
2023/10/30 04:33:45;;;;;;;10.23;3.03;;;;;;;12.35;100.00;99854.53;5332522;27;20024;-74
2023/10/30 04:36:17;;;;;;;7.63;1.90;;;;;;;12.33;100.00;99856.50;5335714;27;20536;-74
2023/10/30 04:38:52;;;;;;;7.43;1.65;;;;;;;12.35;100.00;99857.16;5335477;27;20452;-74
2023/10/30 04:41:24;;;;;;;8.30;1.92;;;;;;;12.38;100.00;99863.88;5335790;27;20460;-74
2023/10/30 04:43:56;;;;;;;8.00;1.92;;;;;;;12.33;100.00;99853.88;5333702;27;20031;-74
2023/10/30 04:46:28;;;;;;;9.90;2.33;;;;;;;12.31;100.00;99857.63;5333206;27;20033;-74
2023/10/30 04:49:00;;;;;;;10.50;2.53;;;;;;;12.22;100.00;99841.06;5333386;28;20027;-74
2023/10/30 04:51:31;;;;;;;9.55;1.98;;;;;;;12.29;100.00;99855.19;5329512;28;20580;-74
2023/10/30 04:54:03;;;;;;;7.57;1.92;;;;;;;12.30;100.00;99861.25;5305110;28;20496;-74
2023/10/30 04:56:35;;;;;;;9.20;2.03;;;;;;;12.30;100.00;99856.81;5312500;28;20043;-75
2023/10/30 04:59:07;;;;;;;7.95;2.17;;;;;;;12.28;100.00;99852.75;5312440;28;20115;-74
2023/10/30 05:01:39;;;;;;;9.73;1.80;;;;;;;12.27;100.00;99846.66;5309851;28;20036;-74
2023/10/30 05:04:11;;;;;;;7.30;1.70;;;;;;;12.27;100.00;99849.28;5300224;28;20016;-74
2023/10/30 05:06:43;;;;;;;10.63;1.73;;;;;;;12.25;100.00;99850.44;5310617;28;20040;-74
2023/10/30 05:09:15;;;;;;;6.57;2.00;;;;;;;12.26;100.00;99852.88;5298882;28;20409;-74
2023/10/30 05:11:47;;;;;;;8.63;1.75;;;;;;;12.22;100.00;99842.88;5301968;28;20296;-74
2023/10/30 05:14:19;;;;;;;7.80;1.92;;;;;;;12.24;100.00;99848.81;5302452;28;20146;-75
2023/10/30 05:16:51;;;;;;;8.98;1.80;;;;;;;12.18;100.00;99852.91;5304677;28;20042;-74
2023/10/30 05:19:23;;;;;;;7.97;1.83;;;;;;;12.18;100.00;99851.09;5310147;28;20114;-74
2023/10/30 05:21:54;;;;;;;6.60;1.75;;;;;;;12.20;100.00;99856.19;5307181;28;20039;-75
2023/10/30 05:24:26;;;;;;;9.73;1.85;;;;;;;12.21;100.00;99849.94;5302844;28;20039;-74
2023/10/30 05:26:58;;;;;;;9.18;1.98;;;;;;;12.19;100.00;99849.28;5291232;28;20565;-74
2023/10/30 05:29:31;;;;;;;11.68;3.00;;;;;;;12.18;100.00;99845.84;5294136;28;20492;-74
2023/10/30 05:32:06;;;;;;;7.63;2.13;;;;;;;12.21;100.00;99836.81;5313309;28;20024;-74
2023/10/30 05:34:38;;;;;;;10.02;2.42;;;;;;;12.16;100.00;99832.06;5315828;28;20011;-74
2023/10/30 05:37:09;;;;;;;9.43;2.13;;;;;;;12.16;100.00;99831.25;5314078;28;20475;-74
2023/10/30 05:39:43;;;;;;;8.52;1.88;;;;;;;12.15;100.00;99830.41;5311601;28;20398;-74
2023/10/30 05:42:15;;;;;;;7.40;1.88;;;;;;;12.10;100.00;99830.09;5312090;28;20032;-74
2023/10/30 05:44:46;;;;;;;7.07;1.88;;;;;;;12.07;100.00;99840.09;5307423;28;20469;-74
2023/10/30 05:47:18;;;;;;;9.30;2.00;;;;;;;12.08;100.00;99839.09;5306338;28;20393;-74
2023/10/30 05:49:50;;;;;;;9.30;2.10;;;;;;;12.07;100.00;99845.34;5298744;28;20081;-74
2023/10/30 05:52:22;;;;;;;7.88;2.67;;;;;;;12.05;100.00;99834.22;5310733;28;20059;-74
2023/10/30 05:54:54;;;;;;;9.18;2.35;;;;;;;12.05;100.00;99836.84;5314941;28;20027;-74
2023/10/30 05:57:26;;;;;;;12.73;1.80;;;;;;;12.04;100.00;99829.91;5314935;28;20027;-74
2023/10/30 05:59:58;;;;;;;11.40;2.42;;;;;;;12.00;100.00;99823.34;5315121;28;20028;-74
2023/10/30 06:02:30;;;;;;;9.07;1.90;;;;;;;11.99;100.00;99835.66;5313898;28;20115;-74
2023/10/30 06:05:02;;;;;;;6.35;1.65;;;;;;;11.98;100.00;99825.34;5317876;28;20480;-74
2023/10/30 06:07:37;;;;;;;11.20;2.57;;;;;;;11.92;100.00;99819.75;5313135;28;20038;-74
2023/10/30 06:10:10;;;;;;;9.00;1.80;;;;;;;11.96;100.00;99827.31;5292804;28;20282;-74
2023/10/30 06:12:44;;;;;;;9.25;2.10;;;;;;;11.91;100.00;99833.03;5316370;28;20040;-74
2023/10/30 06:15:16;;;;;;;8.85;1.90;;;;;;;11.87;100.00;99831.72;5314560;28;20020;-74
2023/10/30 06:17:48;;;;;;;9.52;2.15;;;;;;;11.83;100.00;99830.38;5315470;28;20392;-74
2023/10/30 06:20:20;;;;;;;9.50;1.90;;;;;;;11.81;100.00;99843.66;5315726;28;20035;-74
2023/10/30 06:22:52;;;;;;;8.38;2.05;;;;;;;11.78;100.00;99849.25;5311727;28;20093;-74
2023/10/30 06:25:24;;;;;;;10.77;2.20;;;;;;;11.77;100.00;99846.78;5315019;28;20461;-74
2023/10/30 06:27:56;;;;;;;7.40;1.90;;;;;;;11.75;100.00;99854.00;5316736;28;20036;-74
2023/10/30 06:30:28;;;;;;;9.52;2.33;;;;;;;11.66;100.00;99847.91;5313569;28;20099;-74
2023/10/30 06:32:59;;;;;;;7.70;1.55;;;;;;;11.72;100.00;99859.56;5315372;27;20099;-74
2023/10/30 06:35:31;;;;;;;9.15;2.00;;;;;;;11.72;100.00;99864.81;5312993;28;20094;-75
2023/10/30 06:38:03;;;;;;;6.03;1.60;;;;;;;11.69;100.00;99869.38;5313951;28;20027;-74
2023/10/30 06:40:35;;;;;;;9.55;1.58;;;;;;;11.68;100.00;99878.25;5313293;28;20027;-73
2023/10/30 06:43:07;;;;;;;10.75;2.00;;;;;;;11.68;100.00;99890.56;5313108;27;20039;-74
2023/10/30 06:45:39;;;;;;;8.10;1.73;;;;;;;11.67;100.00;99878.44;5295528;28;20115;-74
2023/10/30 06:48:11;;;;;;;10.55;2.35;;;;;;;11.67;100.00;99886.28;5310302;28;20123;-74
2023/10/30 06:50:46;;;;;;;10.20;2.40;;;;;;;11.76;100.00;99890.56;5309149;27;20130;-74
2023/10/30 06:53:18;;;;;;;9.90;1.90;;;;;;;11.63;100.00;99884.94;5313223;28;20040;-74
2023/10/30 06:55:51;;;;;;;5.50;1.40;;;;;;;11.65;100.00;99883.00;5314233;28;20469;-74
2023/10/30 06:58:23;;;;;;;10.55;2.33;;;;;;;11.70;100.00;99885.94;5312007;27;20035;-74
2023/10/30 07:01:04;;;;;;;8.30;2.10;;;;;;;11.86;100.00;99891.28;5312311;28;20494;-74
2023/10/30 07:03:36;;;;;;;6.72;1.60;;;;;;;11.74;100.00;99889.88;5313316;28;20035;-74
2023/10/30 07:06:10;;;;;;;9.32;2.50;;;;;;;11.78;100.00;99887.78;5308926;28;20089;-74
2023/10/30 07:08:42;;;;;;;6.65;1.65;;;;;;;11.80;100.00;99885.81;5311787;28;20028;-74
2023/10/30 07:11:14;;;;;;;11.55;2.72;;;;;;;11.82;100.00;99894.34;5313673;28;20042;-74
2023/10/30 07:13:46;;;;;;;8.45;1.90;;;;;;;11.84;100.00;99887.97;5311459;28;20034;-74
2023/10/30 07:16:18;;;;;;;8.60;1.98;;;;;;;11.83;100.00;99888.13;5315616;27;21023;-74
2023/10/30 07:18:50;;;;;;;8.95;2.03;;;;;;;11.92;100.00;99895.88;5315242;28;20407;-74
2023/10/30 07:21:23;;;;;;;8.02;2.42;;;;;;;11.87;100.00;99882.41;5312878;28;20031;-74
2023/10/30 07:23:55;;;;;;;9.15;2.20;;;;;;;11.95;100.00;99886.84;5313510;27;20034;-74
2023/10/30 07:26:27;;;;;;;11.70;2.53;;;;;;;11.98;100.00;99893.59;5311513;28;20039;-74
2023/10/30 07:28:59;;;;;;;8.23;1.77;;;;;;;11.95;100.00;99899.16;5314073;28;20289;-74
2023/10/30 07:31:31;;;;;;;8.77;2.30;;;;;;;11.92;100.00;99911.63;5313589;28;20024;-74
2023/10/30 07:34:03;;;;;;;11.50;2.08;;;;;;;11.96;100.00;99916.53;5313962;27;20102;-74
2023/10/30 07:36:35;;;;;;;8.57;1.83;;;;;;;11.98;100.00;99915.41;5313353;28;20044;-74
2023/10/30 07:39:08;;;;;;;10.68;2.22;;;;;;;12.02;100.00;99911.47;5312952;28;20118;-74
2023/10/30 07:41:39;;;;;;;10.88;2.22;;;;;;;12.11;100.00;99925.44;5304997;28;20028;-74
2023/10/30 07:44:11;;;;;;;12.43;2.53;;;;;;;12.12;100.00;99924.44;5313323;28;20560;-74
2023/10/30 07:46:43;;;;;;;9.85;2.00;;;;;;;12.15;100.00;99917.06;5297213;28;20508;-74
2023/10/30 07:49:15;;;;;;;10.95;2.78;;;;;;;12.13;100.00;99908.53;5309264;28;20392;-74
2023/10/30 07:51:47;;;;;;;10.88;1.92;;;;;;;12.22;100.00;99919.84;5303962;28;20040;-74
2023/10/30 07:54:19;;;;;;;10.90;2.38;;;;;;;12.20;100.00;99919.22;5315052;28;20039;-74
2023/10/30 07:56:51;;;;;;;7.13;2.47;;;;;;;12.28;100.00;99911.34;5295272;28;20484;-74
2023/10/30 07:59:22;;;;;;;9.60;2.10;;;;;;;12.34;100.00;99917.72;5318296;28;20059;-73
2023/10/30 08:01:54;;;;;;;6.97;1.80;;;;;;;12.39;100.00;99915.44;5313676;28;20031;-74
2023/10/30 08:04:26;;;;;;;8.23;1.90;;;;;;;12.44;100.00;99914.94;5314986;28;20131;-74
2023/10/30 08:06:58;;;;;;;10.73;2.35;;;;;;;12.50;100.00;99916.91;5314468;28;20622;-74
2023/10/30 08:09:30;;;;;;;9.30;2.00;;;;;;;12.53;100.00;99920.00;5304416;28;20028;-74
2023/10/30 08:12:02;;;;;;;8.88;1.95;;;;;;;12.50;100.00;99919.53;5312923;28;20158;-74
2023/10/30 08:14:34;;;;;;;8.10;1.83;;;;;;;12.54;100.00;99926.94;5313953;28;20124;-74
2023/10/30 08:17:06;;;;;;;5.05;1.63;;;;;;;12.54;100.00;99926.09;5311486;28;20107;-74
2023/10/30 08:19:38;;;;;;;11.63;2.60;;;;;;;12.63;100.00;99927.75;5313809;28;20023;-74
2023/10/30 08:22:10;;;;;;;8.35;1.90;;;;;;;12.66;100.00;99922.97;5309230;28;20023;-74
2023/10/30 08:24:41;;;;;;;9.02;1.70;;;;;;;12.70;100.00;99926.09;5308689;28;20032;-74
2023/10/30 08:27:13;;;;;;;7.20;1.95;;;;;;;12.79;100.00;99926.88;5300755;28;20110;-74
2023/10/30 08:29:45;;;;;;;10.70;2.10;;;;;;;12.73;100.00;99920.50;5301946;28;20027;-74
2023/10/30 08:32:18;;;;;;;10.68;1.98;;;;;;;12.88;100.00;99939.88;5311433;28;20032;-74
2023/10/30 08:34:50;;;;;;;9.15;2.05;;;;;;;12.97;100.00;99947.72;5312541;28;20031;-74
2023/10/30 08:37:22;;;;;;;7.80;2.45;;;;;;;13.05;100.00;99945.09;5311299;28;20036;-74
2023/10/30 08:39:54;;;;;;;9.38;2.00;;;;;;;13.10;100.00;99930.44;5301964;28;20036;-74
2023/10/30 08:42:26;;;;;;;8.25;2.58;;;;;;;13.19;100.00;99925.16;5306425;28;20030;-74
2023/10/30 08:44:58;;;;;;;9.90;2.03;;;;;;;13.24;100.00;99928.13;5312828;28;20106;-74
2023/10/30 08:47:30;;;;;;;11.77;2.20;;;;;;;13.18;100.00;99918.25;5311407;28;20110;-74
2023/10/30 08:50:02;;;;;;;9.40;2.13;;;;;;;13.33;100.00;99933.19;5304816;28;20100;-73
2023/10/30 08:52:35;;;;;;;9.80;2.00;;;;;;;13.41;100.00;99931.50;5309987;28;20946;-74
2023/10/30 08:55:07;;;;;;;6.20;1.90;;;;;;;13.51;100.00;99934.75;5306174;28;20033;-74
2023/10/30 08:57:39;;;;;;;9.03;2.60;;;;;;;13.59;100.00;99932.91;5302340;28;20035;-74
2023/10/30 09:00:11;;;;;;;12.07;2.92;;;;;;;13.66;100.00;99927.78;5309042;28;20027;-74
2023/10/30 09:02:43;;;;;;;7.18;2.17;;;;;;;13.74;100.00;99927.72;5306808;28;20469;-74
2023/10/30 09:05:15;;;;;;;8.18;2.03;;;;;;;13.78;100.00;99933.47;5296229;28;20119;-74
2023/10/30 09:07:47;;;;;;;11.32;2.65;;;;;;;13.85;100.00;99934.41;5311076;28;20059;-74
2023/10/30 09:10:20;;;;;;;9.60;2.28;;;;;;;13.92;100.00;99945.91;5313630;28;20031;-75
2023/10/30 09:12:52;;;;;;;7.28;1.75;;;;;;;13.93;100.00;99941.44;5310816;28;20051;-75
2023/10/30 09:15:24;;;;;;;5.95;1.77;;;;;;;14.03;100.00;99940.25;5305411;28;20489;-73
2023/10/30 09:17:56;;;;;;;7.63;1.77;;;;;;;13.98;100.00;99926.78;5301049;28;20402;-75
2023/10/30 09:20:27;;;;;;;6.30;1.80;;;;;;;14.06;100.00;99933.81;5312665;28;20350;-75
2023/10/30 09:22:59;;;;;;;7.75;1.63;;;;;;;14.15;100.00;99926.66;5303921;28;20034;-75
2023/10/30 09:25:31;;;;;;;6.72;1.63;;;;;;;14.19;100.00;99926.13;5299782;28;20019;-75
2023/10/30 09:28:03;;;;;;;10.07;2.30;;;;;;;14.20;100.00;99921.69;5311899;28;20032;-75
2023/10/30 09:30:35;;;;;;;13.10;2.53;;;;;;;14.17;100.00;99930.78;5307543;28;20031;-75
2023/10/30 09:33:07;;;;;;;8.15;2.25;;;;;;;14.27;100.00;99925.25;5305266;28;20078;-74
2023/10/30 09:35:42;;;;;;;6.07;1.60;;;;;;;14.31;100.00;99929.97;5314358;28;20377;-74
2023/10/30 09:38:14;;;;;;;6.88;1.52;;;;;;;14.26;100.00;99929.72;5315412;28;20034;-74
2023/10/30 09:41:00;;;;;;;7.82;1.70;;;;;;;14.42;100.00;99939.28;5316147;28;20544;-75
2023/10/30 09:43:35;;;;;;;7.45;1.65;;;;;;;14.28;100.00;99926.88;5297322;28;20058;-74
2023/10/30 09:46:07;;;;;;;6.60;1.70;;;;;;;14.25;100.00;99922.81;5310100;28;20027;-75
2023/10/30 09:48:40;;;;;;;8.93;1.98;;;;;;;14.30;100.00;99932.81;5312289;28;20538;-74
2023/10/30 09:51:12;;;;;;;7.85;1.98;;;;;;;14.32;100.00;99918.47;5312392;28;20035;-74
2023/10/30 09:53:46;;;;;;;9.17;1.83;;;;;;;14.41;100.00;99918.41;5307219;28;20469;-75
2023/10/30 09:56:18;;;;;;;6.88;1.80;;;;;;;14.39;100.00;99899.28;5308849;28;20028;-74
2023/10/30 09:58:51;;;;;;;8.80;2.17;;;;;;;14.41;100.00;99908.66;5313088;28;20040;-75
2023/10/30 10:01:24;;;;;;;5.13;1.80;;;;;;;14.38;100.00;99901.13;5311588;28;20032;-74
2023/10/30 10:03:57;;;;;;;6.93;1.67;;;;;;;14.48;100.00;99892.97;5315045;28;20172;-74
2023/10/30 10:06:29;;;;;;;8.98;2.42;;;;;;;14.46;100.00;99898.41;5313012;28;20027;-75
2023/10/30 10:09:04;;;;;;;6.72;1.77;;;;;;;14.56;100.00;99898.19;5292544;28;20050;-75
2023/10/30 10:11:36;;;;;;;7.57;1.88;;;;;;;14.63;100.00;99895.69;5303694;28;20027;-75
2023/10/30 10:14:08;;;;;;;4.05;1.30;;;;;;;14.71;100.00;99883.22;5303532;28;20031;-75
2023/10/30 10:16:40;;;;;;;7.43;1.58;;;;;;;14.67;100.00;99884.59;5314535;28;20030;-75
2023/10/30 10:19:20;;;;;;;6.05;1.60;;;;;;;14.91;100.00;99888.78;5292884;28;20040;-75
2023/10/30 10:21:52;;;;;;;8.10;2.00;;;;;;;14.78;100.00;99902.59;5307422;28;20043;-75
2023/10/30 10:24:32;;;;;;;6.32;1.55;;;;;;;14.97;100.00;99895.16;5316879;28;20030;-75
2023/10/30 10:27:04;;;;;;;8.80;1.77;;;;;;;14.79;100.00;99893.69;5311077;28;20038;-74
2023/10/30 10:29:36;;;;;;;8.93;1.60;;;;;;;14.87;100.00;99903.31;5308768;28;20035;-74
2023/10/30 10:32:08;;;;;;;6.28;1.70;;;;;;;14.91;100.00;99893.22;5314878;28;20031;-73
2023/10/30 10:34:40;;;;;;;7.32;1.63;;;;;;;14.91;100.00;99886.13;5314146;28;20033;-73
2023/10/30 10:37:18;;;;;;;5.23;1.40;;;;;;;15.11;100.00;99891.66;5313382;28;20020;-74
2023/10/30 10:39:53;;;;;;;8.50;1.55;;;;;;;15.00;100.00;99889.50;5314273;28;20047;-74
2023/10/30 10:42:26;;;;;;;4.65;1.52;;;;;;;15.07;100.00;99890.41;5300022;28;20046;-74
2023/10/30 10:44:58;;;;;;;;;;;;;;;15.79;100.00;99885.19;5314030;28;20038;-74
2023/10/30 10:47:30;;;;;;;5.28;1.65;;;;;;;15.20;100.00;99895.88;5313522;28;20300;-73
2023/10/30 10:50:03;;;;;;;5.90;1.58;;;;;;;15.19;100.00;99888.97;5310265;28;20036;-74
2023/10/30 10:52:38;;;;;;;7.10;1.70;;;;;;;15.27;100.00;99893.31;5312802;28;20036;-74
2023/10/30 10:55:11;;;;;;;7.43;1.60;;;;;;;15.09;100.00;99883.13;5313140;28;20027;-74
2023/10/30 10:57:58;;;;;;;8.02;2.00;;;;;;;15.36;100.00;99879.00;5311193;28;20032;-74
2023/10/30 11:00:34;;;;;;;5.63;1.42;;;;;;;15.31;100.00;99876.94;5295153;28;20039;-74
2023/10/30 11:03:08;;;;;;;6.88;1.55;;;;;;;15.36;100.00;99875.56;5312722;28;20023;-73
2023/10/30 11:05:41;;;;;;;5.38;1.33;;;;;;;15.26;100.00;99883.75;5312866;28;20019;-74
2023/10/30 11:08:21;;;;;;;5.50;2.03;;;;;;;15.29;100.00;99878.09;5313513;28;20042;-74
2023/10/30 11:11:00;;;;;;;4.43;1.35;;;;;;;15.38;100.00;99874.38;5304821;28;20047;-74
2023/10/30 11:13:46;;;;;;;3.83;0.90;;;;;;;15.40;100.00;99864.44;5312719;28;20027;-74
2023/10/30 11:16:26;;;;;;;6.32;1.75;;;;;;;15.30;100.00;99869.19;5314399;28;20031;-74
2023/10/30 11:18:59;;;;;;;7.90;1.70;;;;;;;15.30;100.00;99861.25;5316597;28;20384;-74
2023/10/30 11:21:32;;;;;;;3.20;1.00;;;;;;;15.48;100.00;99861.69;5307943;28;20051;-74
2023/10/30 11:24:05;;;;;;;3.88;1.42;;;;;;;15.46;100.00;99853.16;5317076;28;20019;-73
2023/10/30 11:26:40;;;;;;;6.45;1.55;;;;;;;15.53;100.00;99851.41;5308027;28;20034;-73
2023/10/30 11:29:16;;;;;;;4.47;1.10;;;;;;;15.55;100.00;99838.00;5314774;28;20039;-73
2023/10/30 11:31:52;;;;;;;4.43;1.10;;;;;;;15.60;100.00;99834.78;5294762;28;20046;-74
2023/10/30 11:34:37;;;;;;;4.10;1.23;;;;;;;15.67;100.00;99836.53;5314591;28;20027;-74
2023/10/30 11:37:12;;;;;;;5.95;1.30;;;;;;;15.67;100.00;99836.53;5314970;28;20030;-73
2023/10/30 11:39:45;;;;;;;6.75;1.17;;;;;;;15.51;100.00;99823.56;5313978;28;20024;-74
2023/10/30 11:42:29;;;;;;;4.93;1.27;;;;;;;15.76;100.00;99822.22;5312887;28;20019;-74
2023/10/30 11:45:22;;;;;;;3.28;1.00;;;;;;;15.87;100.00;99817.41;5310143;28;20042;-74
2023/10/30 11:47:56;;;;;;;3.85;1.42;;;;;;;15.66;100.00;99816.41;5309656;28;20386;-74
2023/10/30 11:50:33;;;;;;;2.78;1.08;;;;;;;15.74;100.00;99812.84;5301334;28;20058;-74